Beaufort MCAS - Merritt Field
KNBC : rendu visible

Aérodrome :











RETROUVEZ-NOUS SUR...

 
LOGIN :

S'inscrire | Disclaimer

   EN    FR    IT 

 









Légende :    VFR   VFR Marginal   IFR   IFR Intensif   IFR Très Intensif
Visi : 
Plafond : 
>= 8 km
>= 3000ft
5 à 8 km
1000 à 3000 ft
1500m à 5 km
500 à 1000 ft
800 à 1500m
200 à 500 ft
< 800m
< 200 ft
Symboles :   Orages  Brouillard  Fortes neiges  Fortes précipitations  Vent > 20 kt






- Altitude de l'aérodrome : 37 ft


KNBC - Beaufort MCAS - Merritt Field

DERNIER METAR :
  • 222356Z AUTO 18003KT 10SM CLR 18/14 A3003 RMK AO2 SLP170 T01780144 10239 20178 $

METARs EXPIRÉS :
  • 222256Z 18005KT 10SM CLR 19/14 A3003 RMK AO2 SLP170 T01890144
  • 222156Z 16006KT 10SM CLR 19/15 A3004 RMK AO2 SLP171 T01940150 $

TAF TAF KNBC
Valide du 22 à 21h jusqu'au 23 à 21h UTC


2221/2321 VRB06KT 9999 SCT120 QNH3002INS
BECMG 2304/2306 VRB06KT 9999 SCT100 BKN200 QNH3000INS T12/2310Z T24/2219Z LAST AMDS AFTER 2121Z UNTIL 2415Z



MET'MAP, la Météo Aéronautique d'un coup d'oeil ! - Copyright ORBIFLY Décembre 2007 - Disclaimer

ORBIFLY MET'MAP TEAM :

Programmation & Développement : Alexandra Zaïnal
Conception & Développement : Baudouin d'Aumeries
Co-Programmation & Développement : Marc-Olivier Méhu
Soutien technique & logistique : Manuel Goepfert

Contact : metmap@orbifly.com




SOURCES & CREDITS :

   NOAA       Earth
Advisory